Time;durP1;ratioP1;P1;durP2;ratioP2;P2;SDS_P1;SDS_P2;PMS_P1;PMS_P2;Temp;Humidity;BMP_temperature;BMP_pressure;BME280_temperature;BME280_humidity;BME280_pressure;Samples;Min_cycle;Max_cycle;Signal;HPM_P1;HPM_P2
2022/08/31 00:04:37;;;;;;;2.53;1.50;;;19.50;99.90;;;;;;5101911;28;20197;-80
2022/08/31 00:07:03;;;;;;;2.23;1.40;;;19.30;1.00;;;;;;5105320;28;20186;-80
2022/08/31 00:09:29;;;;;;;1.30;1.07;;;19.50;1.00;;;;;;5102734;28;20190;-80
2022/08/31 00:11:55;;;;;;;3.77;1.10;;;19.40;1.00;;;;;;5102077;28;20163;-80
2022/08/31 00:14:21;;;;;;;1.60;1.47;;;19.40;1.00;;;;;;5101249;28;20289;-80
2022/08/31 00:16:46;;;;;;;2.53;1.20;;;19.40;1.00;;;;;;5100009;28;20194;-80
2022/08/31 00:19:12;;;;;;;2.47;1.33;;;19.40;1.00;;;;;;5101637;28;20174;-80
2022/08/31 00:21:39;;;;;;;1.70;1.20;;;19.30;1.00;;;;;;5100818;28;20181;-78
2022/08/31 00:24:04;;;;;;;1.80;1.27;;;19.30;1.00;;;;;;5101193;28;20170;-80
2022/08/31 00:26:30;;;;;;;2.33;1.40;;;19.30;1.00;;;;;;5106014;28;20271;-80
2022/08/31 00:28:55;;;;;;;2.17;1.47;;;19.20;1.00;;;;;;5102965;28;20178;-80
2022/08/31 00:31:21;;;;;;;1.70;1.20;;;19.20;1.00;;;;;;5101756;28;20178;-80
2022/08/31 00:33:51;;;;;;;1.63;1.27;;;19.20;20.30;;;;;;5105037;28;20170;-80
2022/08/31 00:36:21;;;;;;;3.93;1.40;;;19.10;99.90;;;;;;5101896;28;20258;-80
2022/08/31 00:38:48;;;;;;;2.20;1.17;;;19.10;99.90;;;;;;5102658;28;20211;-80
2022/08/31 00:41:16;;;;;;;3.33;1.20;;;19.10;99.90;;;;;;5103793;28;20169;-80
2022/08/31 00:43:52;;;;;;;2.37;1.47;;;19.10;99.90;;;;;;5103996;28;20170;-80
2022/08/31 00:46:34;;;;;;;1.77;1.10;;;19.10;99.90;;;;;;5110360;28;20220;-82
2022/08/31 00:49:05;;;;;;;2.47;1.50;;;19.10;1.00;;;;;;5117105;28;20188;-79
2022/08/31 00:51:36;;;;;;;2.13;1.20;;;19.00;1.00;;;;;;5109970;28;20518;-80
2022/08/31 00:54:04;;;;;;;1.53;1.10;;;19.00;1.00;;;;;;5101061;28;20154;-79
2022/08/31 00:56:32;;;;;;;2.27;1.30;;;19.00;1.00;;;;;;5101840;28;20558;-80
2022/08/31 00:58:59;;;;;;;4.63;1.37;;;19.00;1.00;;;;;;5101705;28;20175;-80
2022/08/31 01:01:25;;;;;;;8.03;1.30;;;18.90;1.00;;;;;;5099927;28;20178;-80
2022/08/31 01:03:50;;;;;;;1.53;1.00;;;18.90;1.00;;;;;;5099567;28;20172;-80
2022/08/31 01:06:17;;;;;;;1.60;1.10;;;18.90;1.00;;;;;;5098107;28;20301;-79
2022/08/31 01:08:44;;;;;;;2.33;1.20;;;18.80;1.00;;;;;;5098466;28;20182;-80
2022/08/31 01:11:10;;;;;;;1.50;1.03;;;18.80;1.00;;;;;;5106303;28;20170;-80
2022/08/31 01:13:36;;;;;;;1.77;1.17;;;18.70;99.90;;;;;;5099824;28;20173;-80
2022/08/31 01:16:07;;;;;;;1.63;1.17;;;18.70;99.90;;;;;;5098286;28;20190;-80
2022/08/31 01:18:33;;;;;;;1.40;1.03;;;18.60;99.90;;;;;;5098734;28;20200;-80
2022/08/31 01:21:23;;;;;;;1.30;1.13;;;18.70;99.90;;;;;;5098205;28;20178;-80
2022/08/31 01:23:50;;;;;;;1.50;1.10;;;18.60;99.90;;;;;;5098425;28;20173;-80
2022/08/31 01:26:21;;;;;;;2.97;1.17;;;18.60;99.90;;;;;;5098412;28;20202;-79
2022/08/31 01:28:48;;;;;;;2.00;0.80;;;18.60;99.90;;;;;;5097317;28;20159;-80
2022/08/31 01:31:22;;;;;;;1.47;0.97;;;18.50;1.00;;;;;;5099753;28;20171;-80
2022/08/31 01:33:48;;;;;;;1.43;0.97;;;18.50;1.00;;;;;;5099612;28;20186;-80
2022/08/31 01:36:15;;;;;;;4.47;1.20;;;18.50;1.00;;;;;;5097521;28;20221;-79
2022/08/31 01:38:41;;;;;;;1.20;1.07;;;18.40;1.00;;;;;;5100693;28;20178;-79
2022/08/31 01:41:07;;;;;;;0.80;0.80;;;18.30;1.00;;;;;;5100069;28;20167;-80
2022/08/31 01:43:33;;;;;;;4.37;1.20;;;18.40;1.00;;;;;;5097641;28;20181;-80
2022/08/31 01:46:08;;;;;;;2.13;1.20;;;18.30;1.00;;;;;;5098827;28;20258;-80
2022/08/31 01:48:34;;;;;;;2.80;1.10;;;18.30;1.00;;;;;;5099786;28;20220;-80
2022/08/31 01:51:01;;;;;;;1.47;1.13;;;18.40;1.00;;;;;;5100522;28;20253;-80
2022/08/31 01:53:27;;;;;;;1.47;1.10;;;18.30;59.20;;;;;;5098529;28;20227;-80
2022/08/31 01:55:52;;;;;;;2.13;1.13;;;18.20;90.80;;;;;;5099713;28;20198;-79
2022/08/31 01:58:18;;;;;;;2.40;1.10;;;18.20;34.40;;;;;;5099219;28;20242;-80
2022/08/31 02:00:44;;;;;;;1.67;0.87;;;18.20;99.90;;;;;;5096757;28;20209;-79
2022/08/31 02:03:10;;;;;;;2.00;1.00;;;18.20;99.90;;;;;;5097497;28;20640;-79
2022/08/31 02:05:36;;;;;;;2.50;1.10;;;18.20;99.90;;;;;;5099547;28;20213;-79
2022/08/31 02:08:03;;;;;;;0.70;0.70;;;18.20;99.90;;;;;;5102207;28;20180;-80
2022/08/31 02:10:29;;;;;;;1.63;0.73;;;18.10;99.90;;;;;;5103420;28;20644;-80
2022/08/31 02:12:55;;;;;;;1.10;0.97;;;18.10;99.90;;;;;;5101983;28;20247;-79
2022/08/31 02:15:20;;;;;;;1.43;1.13;;;18.10;99.90;;;;;;5102881;28;20190;-80
2022/08/31 02:17:46;;;;;;;1.90;1.00;;;18.10;99.90;;;;;;5101421;28;20204;-79
2022/08/31 02:20:12;;;;;;;5.20;1.43;;;18.10;99.90;;;;;;5103317;28;20190;-79
2022/08/31 02:22:39;;;;;;;1.63;0.87;;;18.10;99.90;;;;;;5102935;28;20185;-78
2022/08/31 02:25:06;;;;;;;1.30;0.83;;;18.10;99.90;;;;;;5101731;28;20209;-80
2022/08/31 02:27:31;;;;;;;1.80;1.10;;;18.10;99.90;;;;;;5102551;28;20197;-80
2022/08/31 02:29:57;;;;;;;0.90;0.83;;;18.10;99.90;;;;;;5103635;28;20170;-80
2022/08/31 02:32:23;;;;;;;0.90;0.80;;;18.10;99.90;;;;;;5101546;28;20178;-80
2022/08/31 02:34:49;;;;;;;2.10;1.07;;;18.10;99.90;;;;;;5105786;28;20194;-80
2022/08/31 02:37:16;;;;;;;2.77;1.07;;;18.10;99.90;;;;;;5105853;28;20182;-80
2022/08/31 02:39:42;;;;;;;2.73;1.07;;;18.10;99.90;;;;;;5104456;28;20651;-78
2022/08/31 02:42:07;;;;;;;1.87;0.90;;;18.10;99.90;;;;;;5102659;28;20223;-80
2022/08/31 02:44:33;;;;;;;1.83;1.07;;;18.10;99.90;;;;;;5103943;28;20194;-79
2022/08/31 02:46:59;;;;;;;0.97;0.87;;;18.10;99.90;;;;;;5103536;28;20181;-80
2022/08/31 02:49:24;;;;;;;2.93;1.00;;;18.10;99.90;;;;;;5103097;28;20223;-80
2022/08/31 02:51:50;;;;;;;1.83;0.80;;;18.10;99.90;;;;;;5102745;28;20544;-79
2022/08/31 02:54:16;;;;;;;1.60;0.80;;;18.10;99.90;;;;;;5102937;28;20540;-80
2022/08/31 02:56:41;;;;;;;2.67;0.93;;;18.10;99.90;;;;;;5103964;28;20268;-80
2022/08/31 02:59:08;;;;;;;1.00;0.90;;;18.10;99.90;;;;;;5102751;28;20205;-80
2022/08/31 03:01:35;;;;;;;4.03;1.10;;;18.00;99.90;;;;;;5101998;28;20182;-80
2022/08/31 03:04:01;;;;;;;2.97;1.17;;;18.00;99.90;;;;;;5104328;28;20167;-79
2022/08/31 03:06:28;;;;;;;3.63;0.80;;;18.00;99.90;;;;;;5103583;28;20198;-80
2022/08/31 03:08:54;;;;;;;1.17;1.00;;;18.00;1.00;;;;;;5103352;28;20303;-78
2022/08/31 03:11:19;;;;;;;1.63;0.90;;;18.00;1.00;;;;;;5103207;28;20206;-80
2022/08/31 03:13:45;;;;;;;1.53;0.93;;;17.90;1.00;;;;;;5101086;28;20174;-80
2022/08/31 03:16:13;;;;;;;2.27;0.90;;;17.90;1.00;;;;;;5102733;28;20194;-81
2022/08/31 03:18:38;;;;;;;1.37;1.00;;;17.80;1.00;;;;;;5103469;28;20166;-79
2022/08/31 03:21:04;;;;;;;3.17;1.00;;;17.80;1.00;;;;;;5103868;28;20670;-80
2022/08/31 03:23:29;;;;;;;2.70;1.00;;;17.80;1.00;;;;;;5102757;28;20166;-80
2022/08/31 03:25:55;;;;;;;1.57;0.80;;;17.70;1.00;;;;;;5102078;28;20692;-80
2022/08/31 03:28:20;;;;;;;3.13;1.10;;;17.70;1.00;;;;;;5102959;28;20173;-80
2022/08/31 03:30:47;;;;;;;1.67;1.20;;;17.70;1.00;;;;;;5102883;28;20173;-80
2022/08/31 03:33:12;;;;;;;0.80;0.80;;;17.60;1.00;;;;;;5103002;28;20682;-80
2022/08/31 03:35:43;;;;;;;5.17;1.27;;;17.70;1.00;;;;;;5102083;28;20229;-78
2022/08/31 03:38:09;;;;;;;1.47;1.00;;;17.60;1.00;;;;;;5102724;28;20170;-80
2022/08/31 03:40:35;;;;;;;1.57;1.00;;;17.60;1.00;;;;;;5103395;28;20170;-80
2022/08/31 03:43:01;;;;;;;3.17;1.33;;;17.60;56.00;;;;;;5100895;28;20178;-80
2022/08/31 03:45:27;;;;;;;1.80;1.10;;;17.50;1.00;;;;;;5103058;28;20647;-80
2022/08/31 03:47:53;;;;;;;1.10;0.90;;;17.50;99.90;;;;;;5102466;28;20232;-80
2022/08/31 03:50:19;;;;;;;1.57;0.97;;;17.40;99.90;;;;;;5104287;28;20182;-80
2022/08/31 03:52:44;;;;;;;1.17;0.80;;;17.40;99.90;;;;;;5103577;28;20205;-79
2022/08/31 03:55:10;;;;;;;1.30;1.17;;;17.40;99.90;;;;;;5103370;28;20771;-80
2022/08/31 03:57:36;;;;;;;2.00;0.90;;;17.40;99.90;;;;;;5103147;28;20174;-80
2022/08/31 04:00:03;;;;;;;1.10;0.90;;;17.30;99.90;;;;;;5103387;28;20193;-80
2022/08/31 04:02:29;;;;;;;2.50;0.87;;;17.30;99.90;;;;;;5102590;28;20193;-81
2022/08/31 04:04:55;;;;;;;1.97;1.33;;;17.30;99.90;;;;;;5103115;28;20213;-80
2022/08/31 04:07:21;;;;;;;1.33;1.20;;;17.20;99.90;;;;;;5103414;28;20200;-80
2022/08/31 04:09:48;;;;;;;1.17;0.90;;;17.20;99.90;;;;;;5105467;28;20175;-81
2022/08/31 04:12:15;;;;;;;1.80;1.00;;;17.20;99.90;;;;;;5104794;28;20194;-80
2022/08/31 04:14:40;;;;;;;0.90;0.90;;;17.20;1.00;;;;;;5104410;28;20170;-80
2022/08/31 04:17:09;;;;;;;1.20;0.90;;;17.10;1.00;;;;;;5101710;28;20181;-79
2022/08/31 04:19:34;;;;;;;1.30;0.87;;;17.10;1.00;;;;;;5100337;28;20545;-80
2022/08/31 04:22:00;;;;;;;1.33;1.10;;;17.20;1.00;;;;;;5102251;28;20242;-80
2022/08/31 04:24:26;;;;;;;1.33;1.03;;;17.00;1.00;;;;;;5101605;28;20175;-78
2022/08/31 04:26:52;;;;;;;1.30;0.90;;;17.00;1.00;;;;;;5102954;28;20200;-78
2022/08/31 04:29:17;;;;;;;1.83;0.90;;;17.00;1.00;;;;;;5100880;28;20182;-80
2022/08/31 04:31:43;;;;;;;1.30;0.90;;;17.00;1.00;;;;;;5099788;28;20182;-80
2022/08/31 04:34:09;;;;;;;4.93;1.10;;;17.00;1.00;;;;;;5102538;28;20177;-78
2022/08/31 04:36:36;;;;;;;2.50;1.10;;;16.90;1.00;;;;;;5099883;28;20205;-80
2022/08/31 04:39:03;;;;;;;1.60;0.93;;;16.90;1.00;;;;;;5100746;28;20170;-80
2022/08/31 04:41:31;;;;;;;2.23;1.07;;;16.90;1.00;;;;;;5100601;28;20607;-80
2022/08/31 04:43:58;;;;;;;1.27;1.10;;;16.90;1.00;;;;;;5099378;28;20184;-78
2022/08/31 04:46:25;;;;;;;1.67;1.00;;;16.80;1.00;;;;;;5105096;28;20580;-80
2022/08/31 04:48:51;;;;;;;1.57;1.00;;;16.80;99.90;;;;;;5104254;28;20177;-79
2022/08/31 04:51:20;;;;;;;1.40;0.90;;;16.70;99.90;;;;;;5099307;28;20186;-78
2022/08/31 04:53:47;;;;;;;1.43;1.00;;;16.70;99.90;;;;;;5100059;28;20199;-79
2022/08/31 04:56:16;;;;;;;1.33;1.10;;;16.70;99.90;;;;;;5097038;28;20248;-78
2022/08/31 04:58:44;;;;;;;1.50;1.20;;;16.70;99.90;;;;;;5098361;28;20583;-78
2022/08/31 05:01:12;;;;;;;2.17;1.20;;;16.60;99.90;;;;;;5097606;28;20209;-79
2022/08/31 05:03:39;;;;;;;4.43;0.73;;;16.60;99.90;;;;;;5096727;28;20640;-76
2022/08/31 05:06:05;;;;;;;2.20;1.13;;;16.60;99.90;;;;;;5093297;28;20210;-78
2022/08/31 05:08:30;;;;;;;4.07;1.30;;;16.60;1.00;;;;;;5095052;28;20182;-78
2022/08/31 05:10:56;;;;;;;1.20;1.10;;;16.60;99.90;;;;;;5095670;28;20574;-77
2022/08/31 05:13:22;;;;;;;2.83;1.20;;;16.60;1.00;;;;;;5098356;28;20206;-78
2022/08/31 05:15:47;;;;;;;2.80;1.20;;;16.60;1.00;;;;;;5096257;28;20197;-78
2022/08/31 05:18:13;;;;;;;1.13;0.97;;;16.50;1.00;;;;;;5098127;28;20204;-79
2022/08/31 05:20:39;;;;;;;1.70;1.10;;;16.70;1.00;;;;;;5095775;28;20543;-78
2022/08/31 05:23:05;;;;;;;3.13;1.20;;;16.50;1.00;;;;;;5098405;28;20174;-77
2022/08/31 05:25:31;;;;;;;3.17;1.23;;;16.50;1.00;;;;;;5104123;28;20202;-79
2022/08/31 05:27:57;;;;;;;2.50;1.47;;;16.50;1.00;;;;;;5098567;28;20270;-79
2022/08/31 05:30:23;;;;;;;1.20;0.93;;;16.50;1.00;;;;;;5096657;28;20218;-79
2022/08/31 05:32:49;;;;;;;6.33;1.07;;;16.50;1.00;;;;;;5095586;28;20663;-79
2022/08/31 05:35:15;;;;;;;2.80;1.03;;;16.50;1.00;;;;;;5096361;28;20202;-78
2022/08/31 05:37:41;;;;;;;1.57;1.10;;;16.50;1.00;;;;;;5095809;28;20569;-77
2022/08/31 05:40:07;;;;;;;3.63;1.90;;;16.50;1.00;;;;;;5094765;28;20315;-78
2022/08/31 05:42:33;;;;;;;2.13;1.30;;;16.60;1.00;;;;;;5095797;28;20205;-79
2022/08/31 05:44:59;;;;;;;2.37;1.23;;;16.60;1.00;;;;;;5095273;28;20695;-78
2022/08/31 05:47:25;;;;;;;1.83;0.93;;;16.60;1.00;;;;;;5095082;28;20178;-79
2022/08/31 05:49:50;;;;;;;2.20;1.13;;;16.60;1.00;;;;;;5093547;28;20223;-79
2022/08/31 05:52:16;;;;;;;2.27;1.07;;;16.60;1.00;;;;;;5095269;28;20184;-79
2022/08/31 05:54:41;;;;;;;1.50;1.10;;;16.60;1.00;;;;;;5095404;28;20181;-79
2022/08/31 05:57:07;;;;;;;4.90;1.50;;;16.60;1.00;;;;;;5095283;28;20170;-79
2022/08/31 05:59:34;;;;;;;1.83;1.20;;;16.60;99.90;;;;;;5094815;28;20210;-79
2022/08/31 06:02:00;;;;;;;2.97;1.23;;;16.60;1.00;;;;;;5095421;28;20174;-78
2022/08/31 06:04:27;;;;;;;2.03;1.17;;;16.60;99.90;;;;;;5095074;28;20231;-77
2022/08/31 06:06:53;;;;;;;2.77;1.40;;;16.70;99.90;;;;;;5095073;28;20186;-79
2022/08/31 06:09:19;;;;;;;1.83;1.10;;;16.70;99.90;;;;;;5095517;28;20181;-79
2022/08/31 06:11:44;;;;;;;1.10;1.00;;;16.70;99.90;;;;;;5095480;28;20177;-79
2022/08/31 06:14:11;;;;;;;3.33;1.17;;;16.70;99.90;;;;;;5093819;28;20197;-79
2022/08/31 06:16:37;;;;;;;1.50;1.20;;;16.70;99.90;;;;;;5094887;28;20195;-79
2022/08/31 06:19:06;;;;;;;1.77;1.13;;;16.70;63.40;;;;;;5095773;28;20634;-79
2022/08/31 06:21:34;;;;;;;3.43;1.50;;;16.80;99.90;;;;;;5097230;28;20173;-79
2022/08/31 06:24:02;;;;;;;3.13;1.40;;;16.80;98.10;;;;;;5095347;28;20232;-79
2022/08/31 06:26:30;;;;;;;5.07;1.40;;;16.80;56.90;;;;;;5095071;28;20600;-79
2022/08/31 06:28:58;;;;;;;1.53;1.20;;;16.80;1.00;;;;;;5096034;28;20170;-79
2022/08/31 06:31:29;;;;;;;3.20;1.97;;;16.80;1.00;;;;;;5096715;28;20215;-79
2022/08/31 06:33:55;;;;;;;3.73;1.60;;;16.90;1.00;;;;;;5098538;28;20151;-79
2022/08/31 06:36:23;;;;;;;4.43;2.43;;;16.90;1.00;;;;;;5096139;28;20190;-79
2022/08/31 06:38:49;;;;;;;1.70;1.33;;;16.90;1.00;;;;;;5095082;28;20178;-79
2022/08/31 06:41:18;;;;;;;1.73;1.23;;;17.00;99.90;;;;;;5094822;28;20539;-79
2022/08/31 06:43:44;;;;;;;3.20;1.50;;;17.00;99.90;;;;;;5094137;28;20724;-79
2022/08/31 06:46:11;;;;;;;2.03;1.27;;;17.00;99.90;;;;;;5095166;28;20229;-79
2022/08/31 06:48:37;;;;;;;3.20;1.40;;;17.10;99.90;;;;;;5095576;28;20159;-78
2022/08/31 06:51:05;;;;;;;1.60;1.27;;;17.10;99.90;;;;;;5095373;28;20539;-79
2022/08/31 06:53:31;;;;;;;1.70;1.30;;;17.20;99.90;;;;;;5097934;28;20253;-79
2022/08/31 06:56:06;;;;;;;1.70;1.43;;;17.20;99.90;;;;;;5099093;28;20191;-79
2022/08/31 06:58:32;;;;;;;2.47;1.30;;;17.20;99.90;;;;;;5098078;28;20174;-78
2022/08/31 07:01:07;;;;;;;3.53;1.43;;;17.30;99.90;;;;;;5097658;28;20224;-79
2022/08/31 07:03:37;;;;;;;3.17;1.40;;;17.40;99.90;;;;;;5099116;28;20538;-79
2022/08/31 07:06:07;;;;;;;3.47;1.47;;;17.40;99.90;;;;;;5096741;28;20560;-79
2022/08/31 07:08:32;;;;;;;1.70;1.23;;;17.50;99.90;;;;;;5099365;28;20170;-79
2022/08/31 07:10:58;;;;;;;1.23;1.13;;;17.50;1.00;;;;;;5097689;28;20715;-79
2022/08/31 07:13:24;;;;;;;2.60;1.43;;;17.60;1.00;;;;;;5099480;28;20189;-80
2022/08/31 07:15:49;;;;;;;2.20;1.30;;;17.50;1.00;;;;;;5098937;28;20501;-80
2022/08/31 07:18:15;;;;;;;2.60;1.43;;;17.60;1.00;;;;;;5099479;28;20226;-79
2022/08/31 07:20:40;;;;;;;1.40;1.30;;;17.60;1.00;;;;;;5098645;28;20677;-79
2022/08/31 07:23:06;;;;;;;4.47;1.70;;;17.70;1.00;;;;;;5096797;28;20660;-79
2022/08/31 07:25:31;;;;;;;1.77;1.63;;;17.70;1.00;;;;;;5098139;28;20225;-79
2022/08/31 07:27:58;;;;;;;1.80;1.33;;;17.70;1.00;;;;;;5098672;28;20241;-79
2022/08/31 07:30:24;;;;;;;3.07;1.30;;;17.70;1.00;;;;;;5098180;28;20648;-79
2022/08/31 07:32:50;;;;;;;3.63;1.30;;;17.80;1.00;;;;;;5097116;28;20170;-80
2022/08/31 07:35:17;;;;;;;1.23;1.13;;;17.80;1.00;;;;;;5096259;28;20194;-79
2022/08/31 07:43:13;;;;;;;2.90;1.63;;;17.80;1.00;;;;;;5097715;28;20166;-78
2022/08/31 07:45:39;;;;;;;2.77;1.30;;;17.80;1.00;;;;;;5096684;28;20308;-78
2022/08/31 07:48:05;;;;;;;3.47;1.53;;;17.90;99.90;;;;;;5096968;28;20167;-77
2022/08/31 07:50:31;;;;;;;2.70;1.20;;;17.80;1.00;;;;;;5095703;28;20181;-79
2022/08/31 07:52:57;;;;;;;3.80;1.43;;;17.90;1.00;;;;;;5097170;28;20295;-79
2022/08/31 07:55:25;;;;;;;3.10;1.60;;;18.00;1.00;;;;;;5096814;28;20190;-80
2022/08/31 07:57:53;;;;;;;2.87;1.37;;;18.00;99.90;;;;;;5097374;28;20178;-78
2022/08/31 08:00:28;;;;;;;3.03;1.77;;;18.00;99.90;;;;;;5097707;28;20628;-79
2022/08/31 08:02:54;;;;;;;3.90;1.70;;;18.00;99.90;;;;;;5097149;28;20619;-78
2022/08/31 08:05:27;;;;;;;5.43;1.67;;;18.10;99.90;;;;;;5096828;28;20206;-78
2022/08/31 08:07:57;;;;;;;3.10;1.70;;;18.10;99.90;;;;;;5098883;28;20162;-76
2022/08/31 08:10:23;;;;;;;6.37;1.63;;;18.20;99.90;;;;;;5100345;28;20172;-78
2022/08/31 08:13:02;;;;;;;3.67;1.70;;;18.20;99.90;;;;;;5099753;28;20197;-78
2022/08/31 08:15:29;;;;;;;5.20;2.03;;;18.30;99.90;;;;;;5096975;28;20217;-78
2022/08/31 08:17:54;;;;;;;2.60;1.70;;;18.40;99.90;;;;;;5085975;28;20249;-78
2022/08/31 08:20:21;;;;;;;7.77;1.60;;;18.40;7.80;;;;;;5098776;28;20209;-78
2022/08/31 08:22:47;;;;;;;3.80;1.83;;;18.50;26.90;;;;;;5100452;28;20240;-78
2022/08/31 08:25:13;;;;;;;5.00;2.00;;;18.60;99.90;;;;;;5099074;28;20652;-78
2022/08/31 08:27:38;;;;;;;4.03;1.80;;;18.60;88.70;;;;;;5098896;28;20178;-77
2022/08/31 08:30:06;;;;;;;3.80;2.10;;;18.70;1.00;;;;;;5099842;28;20238;-77
2022/08/31 08:32:33;;;;;;;3.57;1.50;;;18.70;1.00;;;;;;5099727;28;20516;-77
2022/08/31 08:34:58;;;;;;;1.57;1.47;;;18.90;1.00;;;;;;5099733;28;20682;-78
2022/08/31 08:37:26;;;;;;;3.50;1.50;;;19.00;1.00;;;;;;5080948;28;20185;-78
2022/08/31 08:39:53;;;;;;;3.73;2.03;;;19.10;1.00;;;;;;5077823;28;20175;-78
2022/08/31 08:42:20;;;;;;;3.63;2.00;;;19.20;99.90;;;;;;5078679;28;20641;-78
2022/08/31 08:44:46;;;;;;;2.30;1.70;;;19.30;99.90;;;;;;5078961;28;20724;-78
2022/08/31 08:47:17;;;;;;;3.67;1.80;;;19.40;1.00;;;;;;5079726;28;20190;-78
2022/08/31 08:49:52;;;;;;;3.67;1.83;;;19.50;1.00;;;;;;5079231;28;20526;-78
2022/08/31 08:52:29;;;;;;;3.37;1.97;;;19.70;99.90;;;;;;5079900;28;20527;-78
2022/08/31 08:55:00;;;;;;;2.10;1.70;;;19.80;86.60;;;;;;5081011;28;20294;-79
2022/08/31 08:57:30;;;;;;;4.93;1.80;;;19.90;40.90;;;;;;5082579;28;20213;-79
2022/08/31 08:59:59;;;;;;;4.23;1.50;;;19.90;1.00;;;;;;5079618;28;20166;-78
2022/08/31 09:02:47;;;;;;;2.73;1.47;;;19.90;29.90;;;;;;5081505;28;20171;-79
2022/08/31 09:05:55;;;;;;;6.10;1.70;;;19.90;99.90;;;;;;5089296;28;20213;-79
2022/08/31 09:08:41;;;;;;;4.67;1.60;;;19.80;1.00;;;;;;5102766;28;20178;-79
2022/08/31 09:11:16;;;;;;;2.23;1.57;;;19.70;1.00;;;;;;5101166;28;20253;-79
2022/08/31 09:14:14;;;;;;;2.80;1.47;;;19.70;59.00;;;;;;5102818;28;20230;-78
2022/08/31 09:16:43;;;;;;;3.80;1.67;;;19.80;99.90;;;;;;5079641;28;20246;-77
2022/08/31 09:19:15;;;;;;;3.97;1.80;;;19.90;1.00;;;;;;5078366;28;20175;-78
2022/08/31 09:21:53;;;;;;;2.60;1.40;;;20.00;1.00;;;;;;5076602;28;20178;-78
2022/08/31 09:24:25;;;;;;;2.80;1.20;;;20.10;99.90;;;;;;5076247;28;20186;-78
2022/08/31 09:27:03;;;;;;;5.10;1.50;;;20.20;1.00;;;;;;5077652;28;20240;-79
2022/08/31 09:29:30;;;;;;;3.57;1.63;;;20.30;40.70;;;;;;5078931;28;20178;-78
2022/08/31 09:32:05;;;;;;;1.77;1.57;;;20.30;1.00;;;;;;5097546;28;20538;-78
2022/08/31 09:34:37;;;;;;;3.77;1.70;;;20.40;30.70;;;;;;5098131;28;20165;-78
2022/08/31 09:37:24;;;;;;;1.63;1.47;;;20.50;1.00;;;;;;5096125;28;20170;-78
2022/08/31 09:39:52;;;;;;;4.60;1.57;;;20.60;1.00;;;;;;5091135;28;20175;-77
2022/08/31 09:42:30;;;;;;;5.83;2.10;;;20.70;1.00;;;;;;5077969;28;20249;-78
2022/08/31 09:45:08;;;;;;;2.27;1.90;;;20.60;99.90;;;;;;5077235;28;20282;-78
2022/08/31 09:47:47;;;;;;;3.87;2.23;;;20.70;1.00;;;;;;5076190;28;20185;-79
2022/08/31 09:50:35;;;;;;;2.90;1.90;;;20.70;1.00;;;;;;5076518;28;20186;-79
2022/08/31 09:56:15;;;;;;;2.93;1.70;;;21.00;99.90;;;;;;5076693;28;20563;-80
2022/08/31 09:58:55;;;;;;;2.83;1.60;;;21.10;99.90;;;;;;5081758;28;20255;-80
2022/08/31 10:01:42;;;;;;;2.53;1.80;;;21.30;99.90;;;;;;5073343;28;20532;-80
2022/08/31 10:04:25;;;;;;;3.83;1.43;;;21.40;99.90;;;;;;5074611;28;20182;-79
2022/08/31 10:07:40;;;;;;;2.13;1.57;;;21.50;99.90;;;;;;5078375;28;20587;-79
2022/08/31 10:10:13;;;;;;;2.67;2.10;;;21.60;99.90;;;;;;5087354;28;20230;-80
2022/08/31 10:12:50;;;;;;;6.27;2.40;;;21.70;34.60;;;;;;5097201;28;20212;-79
2022/08/31 10:15:34;;;;;;;2.40;2.20;;;21.80;26.40;;;;;;5096113;28;20193;-80
2022/08/31 10:18:38;;;;;;;3.83;2.40;;;21.90;1.00;;;;;;5083109;28;20262;-80
2022/08/31 10:21:13;;;;;;;3.53;2.20;;;21.90;1.00;;;;;;5074973;28;20183;-79
2022/08/31 10:23:53;;;;;;;2.30;2.00;;;22.00;1.00;;;;;;5076399;28;20159;-79
2022/08/31 10:26:45;;;;;;;2.20;2.00;;;22.00;1.00;;;;;;5074719;28;20256;-80
2022/08/31 10:29:31;;;;;;;2.93;2.00;;;22.10;1.00;;;;;;5078189;28;20221;-80
2022/08/31 10:32:00;;;;;;;5.67;2.20;;;22.20;1.00;;;;;;5079888;28;20208;-79
2022/08/31 10:37:25;;;;;;;5.60;2.60;;;22.30;1.00;;;;;;5081115;28;20198;-79
2022/08/31 10:39:57;;;;;;;3.77;1.80;;;22.50;99.90;;;;;;5080254;28;20171;-79
2022/08/31 10:42:36;;;;;;;4.17;2.23;;;22.60;1.00;;;;;;5080131;28;20151;-79
2022/08/31 10:45:22;;;;;;;4.10;1.90;;;22.60;99.90;;;;;;5079641;28;20198;-79
2022/08/31 10:47:49;;;;;;;3.53;1.83;;;22.70;1.00;;;;;;5098959;28;20166;-79
2022/08/31 10:50:26;;;;;;;4.17;1.80;;;22.70;1.00;;;;;;5099938;28;20177;-80
2022/08/31 10:53:19;;;;;;;6.70;2.40;;;22.70;1.00;;;;;;5097851;28;20206;-80
2022/08/31 10:55:57;;;;;;;4.90;2.10;;;22.90;1.00;;;;;;5100144;28;20190;-79
2022/08/31 10:58:40;;;;;;;3.17;1.70;;;23.00;1.00;;;;;;5098227;28;20170;-80
2022/08/31 11:01:16;;;;;;;5.57;1.90;;;23.20;1.00;;;;;;5099537;28;20201;-80
2022/08/31 11:03:58;;;;;;;4.47;2.10;;;23.40;99.90;;;;;;5098314;28;20178;-79
2022/08/31 11:06:53;;;;;;;5.27;2.50;;;23.40;99.90;;;;;;5096747;28;20220;-79
2022/08/31 11:09:24;;;;;;;3.87;2.17;;;23.40;99.90;;;;;;5077330;28;20206;-79
2022/08/31 11:12:05;;;;;;;11.80;2.30;;;23.30;99.90;;;;;;5077089;28;20604;-79
2022/08/31 11:15:08;;;;;;;2.63;1.90;;;23.40;99.90;;;;;;5077125;28;20202;-79
2022/08/31 11:17:55;;;;;;;6.60;2.60;;;23.40;99.90;;;;;;5085567;28;20589;-78
2022/08/31 11:20:32;;;;;;;3.17;2.17;;;23.50;99.90;;;;;;5099560;28;20154;-79
2022/08/31 11:23:04;;;;;;;4.57;2.20;;;23.60;99.90;;;;;;5097262;28;20181;-79
2022/08/31 11:25:36;;;;;;;4.60;2.70;;;23.60;99.90;;;;;;5098711;28;20198;-80
2022/08/31 11:28:08;;;;;;;3.07;2.17;;;23.40;99.90;;;;;;5095998;28;20174;-79
2022/08/31 11:30:43;;;;;;;5.90;2.50;;;23.40;99.90;;;;;;5085827;28;20183;-80
2022/08/31 11:33:18;;;;;;;2.60;2.20;;;23.40;99.90;;;;;;5078229;28;20155;-80
2022/08/31 11:35:59;;;;;;;3.67;2.37;;;23.30;99.90;;;;;;5100038;28;20209;-79
2022/08/31 11:38:56;;;;;;;3.70;2.00;;;23.40;99.90;;;;;;5102706;28;20159;-80
2022/08/31 11:41:35;;;;;;;3.03;2.47;;;23.60;99.90;;;;;;5094251;28;20687;-78
2022/08/31 11:44:03;;;;;;;3.43;2.20;;;23.70;99.90;;;;;;5099325;28;20178;-80
2022/08/31 11:46:44;;;;;;;3.63;2.23;;;23.70;99.90;;;;;;5098595;28;20214;-79
2022/08/31 11:49:38;;;;;;;5.23;1.80;;;23.80;99.90;;;;;;5100950;28;20162;-81
2022/08/31 11:52:09;;;;;;;2.90;2.40;;;23.80;99.90;;;;;;5080495;28;20175;-81
2022/08/31 11:54:40;;;;;;;2.63;2.07;;;23.90;99.90;;;;;;5082455;28;20227;-81
2022/08/31 11:57:16;;;;;;;3.37;2.03;;;23.90;1.00;;;;;;5085422;28;20163;-81
2022/08/31 11:59:45;;;;;;;2.73;2.37;;;23.90;35.80;;;;;;5087644;28;20182;-81
2022/08/31 12:02:19;;;;;;;2.87;1.83;;;24.00;87.60;;;;;;5103447;28;20186;-81
2022/08/31 12:04:46;;;;;;;2.83;1.87;;;24.10;1.00;;;;;;5112087;28;20229;-80
2022/08/31 12:07:27;;;;;;;5.40;2.20;;;24.20;99.90;;;;;;5110307;28;20225;-81
2022/08/31 12:10:23;;;;;;;2.97;1.93;;;24.20;1.00;;;;;;5115680;28;20367;-81
2022/08/31 12:13:06;;;;;;;2.90;2.23;;;24.20;1.00;;;;;;5112400;28;20174;-81
2022/08/31 12:15:37;;;;;;;4.63;2.00;;;24.10;1.00;;;;;;5112916;28;20186;-81
2022/08/31 12:18:42;;;;;;;2.87;1.67;;;24.10;18.30;;;;;;5111739;28;20175;-81
2022/08/31 12:24:24;;;;;;;3.73;2.03;;;24.20;1.00;;;;;;5105347;28;20256;-80
2022/08/31 12:27:05;;;;;;;3.37;1.87;;;24.30;18.50;;;;;;5102983;28;20689;-81
2022/08/31 12:29:36;;;;;;;2.17;1.97;;;24.40;34.70;;;;;;5099097;28;20183;-81
2022/08/31 12:32:31;;;;;;;7.30;2.00;;;24.40;1.00;;;;;;5081445;28;20621;-80
2022/08/31 12:35:09;;;;;;;1.93;1.73;;;24.20;1.00;;;;;;5080815;28;20559;-80
2022/08/31 12:37:36;;;;;;;2.40;2.00;;;24.20;1.00;;;;;;5083027;28;20174;-80
2022/08/31 12:40:21;;;;;;;4.00;2.00;;;24.10;1.00;;;;;;5097725;28;20170;-80
2022/08/31 12:43:09;;;;;;;3.22;1.88;;;24.30;80.00;;;;;;5099448;28;20233;-80
2022/08/31 12:46:01;;;;;;;4.67;3.30;;;24.40;6.10;;;;;;5099762;28;20214;-80
2022/08/31 12:49:04;;;;;;;2.60;2.37;;;24.40;1.00;;;;;;5100677;28;20182;-81
2022/08/31 12:51:44;;;;;;;2.90;2.25;;;24.30;1.00;;;;;;5097837;28;20635;-81
2022/08/31 12:54:42;;;;;;;5.07;2.10;;;24.40;1.00;;;;;;5098427;28;20162;-81
2022/08/31 12:57:41;;;;;;;3.73;2.00;;;24.40;2.40;;;;;;5083740;28;20269;-80
2022/08/31 13:00:09;;;;;;;5.90;2.33;;;24.40;6.90;;;;;;5087483;28;20170;-80
2022/08/31 13:02:41;;;;;;;2.83;2.10;;;24.30;1.00;;;;;;5101027;28;20166;-81
2022/08/31 13:05:18;;;;;;;6.47;2.10;;;24.30;1.00;;;;;;5101185;28;20564;-81
2022/08/31 13:07:44;;;;;;;3.90;2.30;;;24.40;1.00;;;;;;5099447;28;20223;-80
2022/08/31 13:10:14;;;;;;;2.83;2.20;;;24.60;1.00;;;;;;5078486;28;20175;-80
2022/08/31 13:12:48;;;;;;;3.20;2.37;;;24.70;1.00;;;;;;5079947;28;20218;-80
2022/08/31 13:15:25;;;;;;;4.45;2.03;;;24.70;1.00;;;;;;5076024;28;20279;-81
2022/08/31 13:17:52;;;;;;;3.57;1.90;;;24.60;1.00;;;;;;5077553;28;20208;-80
2022/08/31 13:20:20;;;;;;;4.35;2.05;;;24.70;1.00;;;;;;5096400;28;20170;-83
2022/08/31 13:22:55;;;;;;;3.40;2.10;;;24.80;1.00;;;;;;5095984;28;20655;-81
2022/08/31 13:25:34;;;;;;;4.35;2.20;;;24.90;1.00;;;;;;5094067;28;20229;-81
2022/08/31 13:28:06;;;;;;;2.92;2.38;;;25.10;1.00;;;;;;5095560;28;20158;-80
2022/08/31 13:30:37;;;;;;;2.08;1.88;;;25.20;1.00;;;;;;5087210;28;20182;-81